Time;durP1;ratioP1;P1;durP2;ratioP2;P2;SDS_P1;SDS_P2;PMS_P1;PMS_P2;Temp;Humidity;BMP_temperature;BMP_pressure;BME280_temperature;BME280_humidity;BME280_pressure;Samples;Min_cycle;Max_cycle;Signal;HPM_P1;HPM_P2
2022/08/09 00:01:16;;;;;;;1.90;1.37;;;21.90;46.30;;;;;;7383313;19;21046;-45
2022/08/09 00:03:46;;;;;;;2.07;1.60;;;21.80;46.50;;;;;;7383793;19;20400;-46
2022/08/09 00:06:17;;;;;;;3.90;1.53;;;21.90;46.60;;;;;;7386196;19;20932;-45
2022/08/09 00:08:48;;;;;;;1.70;1.60;;;21.90;46.20;;;;;;7384167;19;20426;-46
2022/08/09 00:11:23;;;;;;;1.97;1.23;;;22.00;46.50;;;;;;7385474;19;20379;-47
2022/08/09 00:13:53;;;;;;;4.20;1.60;;;22.00;46.20;;;;;;7384225;19;20376;-46
2022/08/09 00:16:22;;;;;;;1.50;1.40;;;22.00;46.40;;;;;;7384803;19;20387;-46
2022/08/09 00:18:54;;;;;;;1.93;1.60;;;22.10;46.60;;;;;;7384481;19;20380;-46
2022/08/09 00:21:23;;;;;;;1.57;1.33;;;22.00;46.70;;;;;;7385508;19;20402;-46
2022/08/09 00:23:54;;;;;;;2.60;1.90;;;22.00;46.60;;;;;;7384285;19;20997;-46
2022/08/09 00:26:26;;;;;;;2.77;1.30;;;22.10;46.80;;;;;;7385965;19;20471;-46
2022/08/09 00:28:58;;;;;;;1.50;1.33;;;22.10;47.10;;;;;;7382464;19;20435;-46
2022/08/09 00:31:28;;;;;;;3.00;1.60;;;22.10;47.60;;;;;;7385184;19;20404;-46
2022/08/09 00:33:58;;;;;;;2.20;1.97;;;22.10;47.30;;;;;;7388476;19;20804;-46
2022/08/09 00:36:28;;;;;;;2.37;1.67;;;22.00;47.10;;;;;;7381012;19;20383;-46
2022/08/09 00:38:57;;;;;;;1.90;1.40;;;21.90;47.40;;;;;;7386049;19;20376;-46
2022/08/09 00:41:29;;;;;;;1.50;1.40;;;21.80;47.80;;;;;;7380280;19;20769;-46
2022/08/09 00:43:59;;;;;;;1.60;1.50;;;21.90;47.80;;;;;;7386647;19;20376;-46
2022/08/09 00:46:28;;;;;;;2.83;1.70;;;21.90;47.80;;;;;;7383368;19;20384;-46
2022/08/09 00:48:58;;;;;;;1.40;1.30;;;21.70;48.20;;;;;;7384249;19;20380;-45
2022/08/09 00:51:27;;;;;;;3.30;1.50;;;21.50;48.80;;;;;;7382727;19;20384;-45
2022/08/09 00:53:57;;;;;;;2.40;1.87;;;21.40;49.10;;;;;;7381539;19;20361;-45
2022/08/09 00:56:29;;;;;;;2.07;1.63;;;21.30;49.20;;;;;;7384994;19;20914;-45
2022/08/09 00:58:59;;;;;;;1.77;1.67;;;21.20;49.30;;;;;;7383078;19;20380;-45
2022/08/09 01:01:36;;;;;;;1.87;1.43;;;21.10;49.50;;;;;;7382830;19;20866;-46
2022/08/09 01:04:13;;;;;;;4.57;1.47;;;21.10;49.80;;;;;;7385675;19;20387;-45
2022/08/09 01:06:59;;;;;;;3.43;1.70;;;21.20;49.50;;;;;;7381352;19;20724;-45
2022/08/09 01:09:36;;;;;;;2.40;1.43;;;21.10;49.50;;;;;;7384476;19;20384;-45
2022/08/09 01:12:15;;;;;;;2.37;1.50;;;21.00;49.90;;;;;;7381920;19;20379;-45
2022/08/09 01:14:56;;;;;;;2.50;2.00;;;20.80;50.50;;;;;;7385216;19;20401;-46
2022/08/09 01:17:29;;;;;;;2.00;1.60;;;20.80;50.70;;;;;;7383053;19;20371;-45
2022/08/09 01:20:02;;;;;;;1.57;1.47;;;20.90;50.70;;;;;;7383496;19;20452;-46
2022/08/09 01:23:03;;;;;;;2.50;1.97;;;20.90;50.50;;;;;;7382544;19;20440;-45
2022/08/09 01:25:53;;;;;;;1.90;1.67;;;20.90;51.30;;;;;;7383274;19;20812;-45
2022/08/09 01:28:26;;;;;;;3.40;1.77;;;20.90;50.60;;;;;;7383194;19;20376;-46
2022/08/09 01:30:58;;;;;;;4.67;2.17;;;20.90;50.80;;;;;;7381201;19;20383;-45
2022/08/09 01:33:30;;;;;;;2.97;2.37;;;20.90;50.50;;;;;;7382866;19;20747;-46
2022/08/09 01:36:05;;;;;;;1.90;1.70;;;20.80;50.90;;;;;;7384624;19;20923;-45
2022/08/09 01:38:39;;;;;;;3.93;1.80;;;20.70;51.00;;;;;;7382666;19;20388;-45
2022/08/09 01:41:14;;;;;;;1.70;1.60;;;20.80;51.10;;;;;;7381344;19;20378;-45
2022/08/09 01:43:49;;;;;;;3.57;1.50;;;20.90;50.90;;;;;;7383827;19;20380;-45
2022/08/09 01:46:20;;;;;;;3.13;1.97;;;20.80;51.20;;;;;;7378573;19;20380;-45
2022/08/09 01:48:52;;;;;;;2.33;1.87;;;20.70;51.40;;;;;;7385460;19;20376;-45
2022/08/09 01:51:23;;;;;;;2.10;1.90;;;20.60;51.80;;;;;;7380638;19;20380;-46
2022/08/09 01:53:55;;;;;;;2.67;1.80;;;20.60;51.70;;;;;;7380053;19;20405;-46
2022/08/09 01:56:29;;;;;;;2.03;1.83;;;20.50;51.90;;;;;;7378526;19;21037;-46
2022/08/09 01:59:05;;;;;;;3.40;1.90;;;20.30;52.50;;;;;;7382175;19;21456;-46
2022/08/09 02:01:36;;;;;;;1.90;1.70;;;20.30;52.50;;;;;;7380023;19;20440;-46
2022/08/09 02:04:08;;;;;;;2.20;2.03;;;20.40;52.40;;;;;;7379971;19;20660;-46
2022/08/09 02:09:25;;;;;;;2.20;2.00;;;20.30;52.70;;;;;;7379548;19;20368;-46
2022/08/09 02:11:55;;;;;;;1.93;1.83;;;20.20;52.90;;;;;;7378699;19;20724;-46
2022/08/09 02:14:30;;;;;;;3.47;1.57;;;20.10;53.20;;;;;;7380499;19;20368;-46
2022/08/09 02:17:00;;;;;;;2.90;2.00;;;20.30;53.00;;;;;;7379452;19;20383;-46
2022/08/09 02:19:30;;;;;;;2.03;1.83;;;20.30;52.70;;;;;;7382565;19;20376;-46
2022/08/09 02:22:07;;;;;;;2.07;1.80;;;20.30;52.90;;;;;;7382609;19;20368;-46
2022/08/09 02:24:39;;;;;;;3.20;1.67;;;20.30;53.00;;;;;;7379401;19;20409;-46
2022/08/09 02:27:11;;;;;;;2.87;1.90;;;20.30;53.00;;;;;;7381807;19;20407;-46
2022/08/09 02:29:50;;;;;;;2.30;2.10;;;20.20;53.00;;;;;;7379210;19;20419;-45
2022/08/09 02:32:23;;;;;;;2.50;2.20;;;20.10;53.30;;;;;;7380690;19;20376;-46
2022/08/09 02:34:58;;;;;;;2.00;1.80;;;20.00;53.60;;;;;;7377386;19;20387;-46
2022/08/09 02:37:30;;;;;;;2.10;1.90;;;20.00;53.90;;;;;;7382013;19;20932;-45
2022/08/09 02:40:03;;;;;;;2.40;1.60;;;19.90;54.20;;;;;;7382174;19;20376;-45
2022/08/09 02:42:36;;;;;;;2.30;2.10;;;19.80;54.40;;;;;;7381751;19;20496;-47
2022/08/09 02:45:12;;;;;;;2.13;1.90;;;19.70;54.70;;;;;;7378505;19;20752;-46
2022/08/09 02:47:44;;;;;;;1.87;1.77;;;19.80;54.80;;;;;;7381738;19;20387;-46
2022/08/09 02:50:17;;;;;;;3.50;1.90;;;19.90;54.50;;;;;;7379474;19;20391;-46
2022/08/09 02:52:51;;;;;;;3.90;2.27;;;19.80;54.50;;;;;;7382462;19;20380;-47
2022/08/09 02:55:26;;;;;;;3.07;2.10;;;19.70;54.30;;;;;;7379243;19;20368;-46
2022/08/09 02:57:58;;;;;;;2.93;1.70;;;19.60;54.40;;;;;;7380839;19;20380;-46
2022/08/09 03:00:31;;;;;;;1.97;1.80;;;19.60;54.60;;;;;;7376721;19;21120;-46
2022/08/09 03:03:02;;;;;;;2.27;2.07;;;19.60;54.50;;;;;;7382558;19;20410;-46
2022/08/09 03:05:33;;;;;;;3.00;2.20;;;19.50;54.60;;;;;;7388547;19;20387;-46
2022/08/09 03:08:04;;;;;;;2.47;2.27;;;19.30;55.50;;;;;;7388873;19;20901;-46
2022/08/09 03:10:36;;;;;;;2.47;1.90;;;19.30;55.10;;;;;;7388986;19;20392;-45
2022/08/09 03:13:09;;;;;;;2.30;2.10;;;19.30;54.80;;;;;;7389239;19;20386;-46
2022/08/09 03:15:41;;;;;;;1.90;1.77;;;19.30;54.80;;;;;;7384095;19;20473;-46
2022/08/09 03:18:12;;;;;;;2.00;1.70;;;19.40;54.60;;;;;;7387247;19;20389;-46
2022/08/09 03:20:44;;;;;;;3.23;2.17;;;19.30;54.80;;;;;;7385345;19;20366;-46
2022/08/09 03:23:15;;;;;;;2.40;2.20;;;19.40;54.50;;;;;;7389063;19;20522;-45
2022/08/09 03:25:45;;;;;;;2.53;2.00;;;19.40;54.50;;;;;;7385234;19;20376;-46
2022/08/09 03:28:16;;;;;;;3.37;2.10;;;19.30;54.50;;;;;;7387595;19;20379;-46
2022/08/09 03:30:49;;;;;;;2.00;1.90;;;19.20;55.00;;;;;;7384836;19;20376;-46
2022/08/09 03:33:20;;;;;;;2.00;1.90;;;19.30;54.80;;;;;;7384701;19;20762;-46
2022/08/09 03:35:50;;;;;;;2.10;2.00;;;19.30;55.00;;;;;;7386270;19;20899;-46
2022/08/09 03:38:20;;;;;;;3.37;2.10;;;19.50;54.80;;;;;;7384171;19;20384;-45
2022/08/09 03:40:49;;;;;;;2.27;2.07;;;19.70;54.40;;;;;;7386941;19;20723;-46
2022/08/09 03:43:18;;;;;;;4.03;1.87;;;19.70;54.40;;;;;;7387640;19;20424;-46
2022/08/09 03:45:51;;;;;;;2.00;1.87;;;19.60;54.50;;;;;;7383159;19;20411;-45
2022/08/09 03:48:21;;;;;;;2.30;2.00;;;19.50;55.00;;;;;;7383795;19;20387;-45
2022/08/09 03:50:53;;;;;;;2.53;1.90;;;19.40;55.40;;;;;;7389150;19;20377;-45
2022/08/09 03:53:23;;;;;;;2.33;2.10;;;19.20;55.80;;;;;;7383126;19;20391;-46
2022/08/09 03:55:52;;;;;;;2.60;2.30;;;19.10;56.70;;;;;;7383414;19;20375;-46
2022/08/09 03:58:22;;;;;;;2.30;2.10;;;19.20;56.80;;;;;;7386339;19;20970;-46
2022/08/09 04:00:55;;;;;;;4.10;2.60;;;19.30;56.70;;;;;;7386182;19;20428;-46
2022/08/09 04:03:26;;;;;;;4.87;2.47;;;19.30;56.70;;;;;;7386904;19;20392;-45
2022/08/09 04:05:56;;;;;;;2.70;2.23;;;19.30;56.80;;;;;;7385941;19;20741;-46
2022/08/09 04:08:25;;;;;;;2.73;2.53;;;19.40;57.00;;;;;;7386796;19;20372;-46
2022/08/09 04:10:57;;;;;;;4.13;2.30;;;19.30;57.10;;;;;;7387932;19;20376;-46
2022/08/09 04:13:26;;;;;;;3.20;2.20;;;19.30;57.10;;;;;;7385607;19;20728;-46
2022/08/09 04:15:58;;;;;;;2.40;2.20;;;19.20;57.50;;;;;;7385259;19;20397;-45
2022/08/09 04:18:28;;;;;;;2.63;2.43;;;19.20;57.60;;;;;;7386927;19;20368;-45
2022/08/09 04:20:57;;;;;;;2.37;2.17;;;19.10;58.00;;;;;;7386559;19;21016;-46
2022/08/09 04:23:27;;;;;;;2.77;2.57;;;19.10;57.80;;;;;;7387058;19;20375;-46
2022/08/09 04:25:57;;;;;;;2.30;2.07;;;19.20;57.70;;;;;;7379181;19;20383;-46
2022/08/09 04:28:27;;;;;;;4.00;2.40;;;19.30;57.60;;;;;;7386219;19;20379;-46
2022/08/09 04:30:59;;;;;;;4.23;2.10;;;19.30;57.80;;;;;;7387278;19;20906;-46
2022/08/09 04:33:29;;;;;;;7.23;2.30;;;19.30;57.90;;;;;;7386859;19;20384;-46
2022/08/09 04:35:58;;;;;;;2.80;2.50;;;19.20;58.00;;;;;;7377949;19;20515;-46
2022/08/09 04:38:28;;;;;;;2.60;2.40;;;19.20;58.00;;;;;;7379318;19;20913;-46
2022/08/09 04:40:58;;;;;;;4.00;2.57;;;19.30;57.90;;;;;;7385370;19;20380;-46
2022/08/09 04:43:27;;;;;;;7.83;3.13;;;19.30;57.90;;;;;;7382729;19;20383;-46
2022/08/09 04:46:00;;;;;;;4.00;2.50;;;19.30;57.90;;;;;;7380598;19;20376;-46
2022/08/09 04:48:29;;;;;;;3.30;1.93;;;19.20;58.30;;;;;;7384416;19;20364;-45
2022/08/09 04:50:58;;;;;;;2.73;2.53;;;19.20;58.50;;;;;;7384634;19;20376;-46
2022/08/09 04:53:28;;;;;;;3.10;2.80;;;19.10;58.40;;;;;;7378668;19;20360;-46
2022/08/09 04:55:58;;;;;;;2.73;2.43;;;19.20;58.60;;;;;;7381328;19;20376;-46
2022/08/09 04:58:27;;;;;;;2.80;2.60;;;19.20;58.90;;;;;;7381985;19;20387;-45
2022/08/09 05:01:00;;;;;;;3.73;2.83;;;19.10;59.10;;;;;;7382926;19;20424;-46
2022/08/09 05:03:31;;;;;;;3.90;2.47;;;19.10;59.30;;;;;;7380041;19;20372;-46
2022/08/09 05:06:01;;;;;;;2.97;2.77;;;19.10;59.40;;;;;;7386092;19;20466;-45
2022/08/09 05:08:31;;;;;;;2.93;2.40;;;19.10;59.60;;;;;;7378916;19;20376;-45
2022/08/09 05:11:01;;;;;;;2.67;2.47;;;19.10;59.90;;;;;;7381723;19;20373;-46
2022/08/09 05:13:31;;;;;;;4.07;2.83;;;19.10;60.10;;;;;;7379646;19;20384;-45
2022/08/09 05:16:03;;;;;;;2.60;2.40;;;19.20;60.00;;;;;;7375010;19;20372;-46
2022/08/09 05:18:32;;;;;;;3.20;2.37;;;19.30;59.70;;;;;;7381273;19;20375;-46
2022/08/09 05:21:05;;;;;;;6.33;4.23;;;19.50;59.40;;;;;;7382283;19;20409;-46
2022/08/09 05:23:34;;;;;;;3.80;3.07;;;19.60;59.20;;;;;;7378470;19;20379;-46
2022/08/09 05:26:03;;;;;;;5.27;3.23;;;19.70;59.00;;;;;;7374107;19;20412;-46
2022/08/09 05:28:33;;;;;;;3.87;3.47;;;19.70;59.70;;;;;;7379065;19;20388;-46
2022/08/09 05:31:05;;;;;;;4.00;2.60;;;19.80;59.00;;;;;;7377814;19;20690;-46
2022/08/09 05:33:35;;;;;;;3.37;2.57;;;19.90;58.40;;;;;;7381408;19;20388;-46
2022/08/09 05:36:05;;;;;;;3.93;2.50;;;19.90;58.60;;;;;;7385178;19;20391;-46
2022/08/09 05:38:34;;;;;;;2.70;2.50;;;20.00;58.20;;;;;;7384440;19;21090;-46
2022/08/09 05:41:04;;;;;;;7.10;2.70;;;20.10;57.50;;;;;;7381320;19;20387;-46
2022/08/09 05:43:36;;;;;;;2.63;2.43;;;20.30;56.90;;;;;;7385462;19;20388;-46
2022/08/09 05:46:09;;;;;;;2.40;2.20;;;20.40;56.40;;;;;;7384511;19;20448;-47
2022/08/09 05:48:38;;;;;;;3.10;2.60;;;20.50;56.30;;;;;;7383620;19;20436;-46
2022/08/09 05:51:08;;;;;;;3.50;2.50;;;20.50;56.30;;;;;;7383936;19;20391;-46
2022/08/09 05:53:39;;;;;;;3.57;3.03;;;20.60;56.10;;;;;;7385703;19;20376;-46
2022/08/09 05:56:12;;;;;;;3.40;2.57;;;20.50;56.10;;;;;;7383945;19;20370;-46
2022/08/09 05:58:41;;;;;;;2.63;2.40;;;20.60;56.20;;;;;;7382983;19;20376;-46
2022/08/09 06:01:13;;;;;;;3.03;2.83;;;20.80;55.70;;;;;;7381996;19;20473;-46
2022/08/09 06:03:43;;;;;;;6.50;2.97;;;20.80;55.50;;;;;;7381395;19;20399;-46
2022/08/09 06:06:13;;;;;;;3.63;2.67;;;20.90;55.50;;;;;;7383970;19;20400;-47
2022/08/09 06:08:42;;;;;;;4.00;2.60;;;21.10;55.20;;;;;;7381762;19;20436;-46
2022/08/09 06:11:12;;;;;;;2.80;2.47;;;21.20;55.20;;;;;;7384477;19;20384;-46
2022/08/09 06:13:42;;;;;;;3.93;3.10;;;21.40;54.90;;;;;;7381473;19;20408;-47
2022/08/09 06:16:14;;;;;;;5.37;3.80;;;21.60;54.60;;;;;;7381471;19;20505;-46
2022/08/09 06:18:43;;;;;;;5.97;3.57;;;21.80;54.20;;;;;;7382002;19;20368;-46
2022/08/09 06:21:12;;;;;;;7.23;3.00;;;22.00;54.00;;;;;;7382334;19;20368;-46
2022/08/09 06:23:42;;;;;;;5.00;3.30;;;22.20;53.50;;;;;;7381838;19;20413;-46
2022/08/09 06:26:12;;;;;;;6.00;3.13;;;22.40;53.70;;;;;;7381774;19;20519;-46
2022/08/09 06:28:41;;;;;;;6.00;3.30;;;22.60;53.80;;;;;;7382946;19;20409;-46
2022/08/09 06:31:13;;;;;;;4.40;3.30;;;22.70;53.10;;;;;;7383467;19;20376;-46
2022/08/09 06:33:43;;;;;;;8.40;3.70;;;22.70;52.70;;;;;;7383032;19;20387;-46
2022/08/09 06:36:12;;;;;;;4.27;3.43;;;22.90;52.70;;;;;;7382188;19;20368;-47
2022/08/09 06:38:43;;;;;;;5.80;5.27;;;23.00;52.50;;;;;;7386806;19;20388;-46
2022/08/09 06:41:12;;;;;;;4.20;3.80;;;23.10;52.50;;;;;;7390731;19;21265;-46
2022/08/09 06:43:42;;;;;;;5.40;4.90;;;23.20;52.00;;;;;;7390638;19;20387;-46
2022/08/09 06:46:14;;;;;;;4.80;3.83;;;23.30;51.60;;;;;;7391194;19;20439;-47
2022/08/09 06:48:44;;;;;;;5.73;5.20;;;23.40;51.50;;;;;;7388915;19;20722;-47
2022/08/09 06:51:13;;;;;;;7.33;5.00;;;23.60;51.20;;;;;;7390421;19;20384;-46
2022/08/09 06:53:43;;;;;;;6.40;4.60;;;23.70;51.00;;;;;;7388383;19;20391;-47
2022/08/09 06:56:14;;;;;;;6.30;3.97;;;23.80;50.90;;;;;;7390569;19;20372;-47
2022/08/09 06:58:44;;;;;;;9.50;4.80;;;24.00;50.70;;;;;;7387010;19;20418;-47
2022/08/09 07:01:16;;;;;;;6.40;4.30;;;24.10;50.40;;;;;;7388744;19;20439;-47
2022/08/09 07:03:46;;;;;;;6.17;4.10;;;24.10;50.20;;;;;;7391048;19;20917;-46
2022/08/09 07:06:15;;;;;;;5.60;4.30;;;24.20;50.20;;;;;;7390044;19;21154;-47
2022/08/09 07:08:45;;;;;;;7.33;4.03;;;24.20;50.20;;;;;;7388953;19;20376;-47
2022/08/09 07:11:14;;;;;;;4.70;4.10;;;24.40;49.90;;;;;;7389196;19;20394;-47
2022/08/09 07:13:44;;;;;;;6.93;5.57;;;24.60;49.40;;;;;;7387732;19;20380;-47
2022/08/09 07:16:16;;;;;;;7.07;4.53;;;24.70;49.10;;;;;;7386992;19;20360;-47
2022/08/09 07:18:45;;;;;;;6.97;5.00;;;24.80;49.00;;;;;;7387573;19;20391;-47
2022/08/09 07:21:17;;;;;;;6.70;4.60;;;24.80;49.00;;;;;;7388792;19;20376;-47
2022/08/09 07:23:47;;;;;;;5.67;4.20;;;24.90;48.40;;;;;;7390546;19;20387;-47
2022/08/09 07:26:19;;;;;;;6.10;4.00;;;25.00;48.40;;;;;;7387205;19;20368;-47
2022/08/09 07:28:48;;;;;;;6.00;4.63;;;25.10;48.20;;;;;;7388619;19;20376;-47
2022/08/09 07:31:20;;;;;;;6.00;4.00;;;25.30;48.00;;;;;;7387611;19;20379;-47
2022/08/09 07:33:50;;;;;;;3.80;3.40;;;25.40;47.80;;;;;;7390348;19;20429;-46
2022/08/09 07:36:19;;;;;;;5.53;4.10;;;25.50;47.20;;;;;;7386481;19;20390;-47
2022/08/09 07:38:49;;;;;;;8.00;3.97;;;25.60;47.10;;;;;;7384132;19;20391;-47
2022/08/09 07:41:18;;;;;;;6.97;4.20;;;25.70;46.70;;;;;;7387791;19;20376;-47
2022/08/09 07:43:48;;;;;;;9.17;3.97;;;25.90;46.50;;;;;;7388883;19;20428;-47
2022/08/09 07:46:20;;;;;;;4.90;3.37;;;26.00;46.60;;;;;;7387617;19;20395;-47
2022/08/09 07:48:49;;;;;;;7.97;4.10;;;26.10;46.10;;;;;;7386637;19;20395;-47
2022/08/09 07:51:22;;;;;;;7.73;3.17;;;26.20;46.00;;;;;;7386905;19;20380;-47
2022/08/09 07:53:52;;;;;;;4.30;3.80;;;26.30;45.70;;;;;;7387153;19;20920;-47
2022/08/09 07:56:22;;;;;;;3.63;2.80;;;26.40;45.50;;;;;;7386297;19;20733;-47
2022/08/09 07:58:51;;;;;;;5.60;3.37;;;26.40;46.20;;;;;;7386001;19;20380;-47
2022/08/09 08:01:24;;;;;;;3.50;3.13;;;26.50;45.40;;;;;;7385152;19;21222;-47
2022/08/09 08:03:53;;;;;;;5.73;3.83;;;26.70;45.40;;;;;;7386828;19;20380;-47
2022/08/09 08:06:23;;;;;;;4.90;3.90;;;26.80;45.30;;;;;;7385114;19;20368;-47
2022/08/09 08:08:52;;;;;;;4.90;2.97;;;27.00;45.30;;;;;;7385084;19;20380;-47
2022/08/09 08:11:21;;;;;;;4.80;3.60;;;27.20;44.80;;;;;;7386687;19;20913;-47
2022/08/09 08:13:51;;;;;;;3.90;3.03;;;27.50;44.30;;;;;;7388292;19;20401;-47
2022/08/09 08:16:26;;;;;;;3.50;2.70;;;27.70;43.80;;;;;;7386871;19;20934;-47
2022/08/09 08:18:56;;;;;;;3.20;2.87;;;27.80;43.90;;;;;;7384522;19;20420;-47
2022/08/09 08:21:26;;;;;;;4.73;3.13;;;28.00;42.80;;;;;;7386004;19;20693;-47
2022/08/09 08:23:55;;;;;;;3.90;2.80;;;27.90;43.10;;;;;;7386308;19;20394;-48
2022/08/09 08:26:32;;;;;;;3.40;2.47;;;28.00;43.00;;;;;;7387110;19;20373;-47
2022/08/09 08:29:01;;;;;;;4.63;2.60;;;28.10;42.80;;;;;;7387125;19;20387;-48
2022/08/09 08:31:34;;;;;;;3.00;2.50;;;28.20;42.40;;;;;;7384303;19;20390;-47
2022/08/09 08:34:03;;;;;;;3.13;2.70;;;28.50;42.40;;;;;;7386441;19;20384;-48
2022/08/09 08:36:33;;;;;;;2.97;2.40;;;28.70;42.40;;;;;;7386987;19;20376;-48
2022/08/09 08:39:02;;;;;;;3.73;2.70;;;29.00;42.00;;;;;;7385689;19;20906;-48
2022/08/09 08:41:32;;;;;;;4.63;2.30;;;29.40;40.80;;;;;;7386469;19;20897;-47
2022/08/09 08:44:02;;;;;;;2.53;2.33;;;29.60;40.50;;;;;;7384158;19;20376;-48
2022/08/09 08:46:41;;;;;;;6.63;2.27;;;29.60;40.20;;;;;;7386283;19;20415;-47
2022/08/09 08:49:10;;;;;;;5.10;2.20;;;29.90;40.10;;;;;;7384819;19;20383;-47
2022/08/09 08:51:42;;;;;;;3.00;2.37;;;30.00;40.00;;;;;;7385596;19;21192;-48
2022/08/09 08:54:13;;;;;;;5.50;1.80;;;30.30;39.40;;;;;;7384751;19;20431;-47
2022/08/09 08:56:44;;;;;;;2.40;1.97;;;30.60;38.80;;;;;;7383909;19;20846;-48
2022/08/09 08:59:14;;;;;;;4.90;2.37;;;30.90;38.10;;;;;;7382602;19;20380;-48
2022/08/09 09:01:50;;;;;;;2.70;2.30;;;31.10;37.80;;;;;;7383548;19;20428;-48
2022/08/09 09:04:26;;;;;;;3.20;2.40;;;31.30;37.70;;;;;;7385329;19;20391;-48
2022/08/09 09:06:59;;;;;;;4.07;1.97;;;31.70;36.50;;;;;;7384850;19;20384;-48
2022/08/09 09:09:32;;;;;;;3.73;2.53;;;31.80;36.70;;;;;;7386693;19;20383;-48
2022/08/09 09:12:04;;;;;;;1.80;1.70;;;32.00;36.10;;;;;;7385032;19;20372;-48
2022/08/09 09:14:36;;;;;;;2.40;2.07;;;32.10;35.70;;;;;;7383968;19;20379;-48
2022/08/09 09:17:08;;;;;;;2.90;2.23;;;32.50;35.50;;;;;;7383312;19;20383;-48
2022/08/09 09:19:38;;;;;;;3.93;2.03;;;32.70;34.50;;;;;;7385552;19;20384;-47
2022/08/09 09:22:13;;;;;;;1.70;1.60;;;32.60;34.70;;;;;;7385615;19;20384;-48
2022/08/09 09:24:50;;;;;;;2.90;2.10;;;32.80;34.40;;;;;;7383773;19;20376;-48
2022/08/09 09:27:25;;;;;;;2.20;2.00;;;33.10;34.00;;;;;;7384911;19;20910;-48
2022/08/09 09:29:56;;;;;;;2.00;1.63;;;33.60;33.30;;;;;;7386558;19;20886;-48
2022/08/09 09:32:29;;;;;;;1.57;1.47;;;33.60;32.80;;;;;;7382383;19;21014;-48
2022/08/09 09:35:07;;;;;;;2.83;2.00;;;34.30;32.40;;;;;;7383761;19;20393;-48
2022/08/09 09:37:36;;;;;;;4.40;2.27;;;34.90;31.20;;;;;;7385473;19;20372;-48
2022/08/09 09:40:08;;;;;;;2.10;1.53;;;35.30;31.40;;;;;;7384334;19;20388;-49
2022/08/09 09:42:37;;;;;;;3.27;1.73;;;35.60;29.90;;;;;;7382687;19;20380;-48
2022/08/09 09:45:10;;;;;;;2.40;1.77;;;36.10;28.90;;;;;;7383547;19;20377;-49
2022/08/09 09:47:48;;;;;;;2.57;1.80;;;36.40;28.00;;;;;;7382647;19;20473;-48
2022/08/09 09:50:21;;;;;;;2.00;1.80;;;36.50;27.60;;;;;;7382366;19;20397;-48
2022/08/09 09:52:51;;;;;;;4.80;2.10;;;36.80;27.70;;;;;;7384517;19;20371;-49
2022/08/09 09:55:24;;;;;;;2.87;1.70;;;37.00;27.60;;;;;;7384539;19;20470;-48
2022/08/09 09:58:00;;;;;;;1.70;1.40;;;37.30;27.50;;;;;;7383974;19;20469;-49
2022/08/09 10:00:30;;;;;;;4.33;1.60;;;37.60;27.20;;;;;;7383255;19;20428;-49
2022/08/09 10:03:02;;;;;;;1.60;1.50;;;38.00;27.00;;;;;;7384478;19;20376;-48
2022/08/09 10:05:36;;;;;;;2.40;1.77;;;38.30;26.50;;;;;;7382807;19;20903;-48
2022/08/09 10:08:06;;;;;;;2.90;1.83;;;38.00;26.60;;;;;;7384066;19;20382;-48
2022/08/09 10:10:36;;;;;;;1.70;1.47;;;38.20;27.00;;;;;;7385287;19;20363;-49
2022/08/09 10:13:05;;;;;;;3.27;2.07;;;38.60;26.40;;;;;;7380615;19;20443;-48
2022/08/09 10:15:51;;;;;;;1.70;1.47;;;38.80;25.90;;;;;;7381644;19;20372;-49
2022/08/09 10:18:23;;;;;;;2.27;1.50;;;39.20;25.90;;;;;;7382213;19;20811;-46
2022/08/09 10:20:55;;;;;;;2.10;1.70;;;39.60;25.50;;;;;;7384586;19;20467;-49
2022/08/09 10:23:25;;;;;;;3.00;1.70;;;40.10;25.20;;;;;;7383344;19;20420;-49
2022/08/09 10:25:54;;;;;;;1.67;1.40;;;40.70;24.70;;;;;;7383230;19;20392;-49
2022/08/09 10:28:24;;;;;;;3.10;1.67;;;40.70;23.80;;;;;;7382004;19;20805;-49
2022/08/09 10:30:54;;;;;;;1.83;1.73;;;40.50;24.00;;;;;;7383570;19;20423;-49
2022/08/09 10:33:26;;;;;;;3.80;1.57;;;41.00;23.70;;;;;;7380812;19;20372;-49
2022/08/09 10:35:59;;;;;;;1.63;1.30;;;41.40;23.70;;;;;;7381992;19;20368;-49
2022/08/09 10:38:31;;;;;;;1.37;1.27;;;41.20;23.60;;;;;;7382442;19;20384;-49
2022/08/09 10:41:01;;;;;;;1.67;1.20;;;41.30;23.40;;;;;;7382493;19;20966;-49
2022/08/09 10:43:31;;;;;;;1.60;1.50;;;41.60;23.20;;;;;;7382477;19;20381;-49
2022/08/09 10:46:15;;;;;;;1.87;1.50;;;42.20;23.00;;;;;;7382904;19;20369;-49
2022/08/09 10:48:54;;;;;;;1.87;1.50;;;42.30;22.90;;;;;;7382529;19;20902;-49
2022/08/09 10:51:39;;;;;;;1.93;1.63;;;42.30;22.80;;;;;;7381198;19;20391;-49
2022/08/09 10:54:12;;;;;;;2.00;1.80;;;42.30;22.70;;;;;;7379734;19;20379;-49
2022/08/09 10:56:43;;;;;;;1.90;1.33;;;42.60;22.30;;;;;;7376157;19;20458;-49
2022/08/09 10:59:32;;;;;;;2.07;1.33;;;43.00;22.10;;;;;;7376781;19;20919;-48
2022/08/09 11:02:02;;;;;;;2.00;1.57;;;43.80;21.80;;;;;;7376629;19;20786;-48
2022/08/09 11:04:34;;;;;;;1.70;1.40;;;43.60;21.80;;;;;;7376214;19;20400;-48
2022/08/09 11:07:29;;;;;;;2.07;1.70;;;43.30;21.70;;;;;;7376195;19;20966;-48
2022/08/09 11:09:59;;;;;;;3.40;1.60;;;43.90;21.20;;;;;;7377940;19;20487;-48
2022/08/09 11:12:30;;;;;;;2.77;1.47;;;44.30;21.00;;;;;;7376387;19;20443;-48
2022/08/09 11:15:01;;;;;;;1.73;1.30;;;44.20;21.00;;;;;;7379435;19;20394;-48
2022/08/09 11:17:52;;;;;;;1.80;1.70;;;44.60;20.50;;;;;;7371860;19;20931;-48
2022/08/09 11:20:41;;;;;;;1.57;1.47;;;44.90;20.20;;;;;;7372404;19;20377;-48
2022/08/09 11:23:11;;;;;;;1.60;1.50;;;45.00;20.10;;;;;;7375284;19;20886;-48
2022/08/09 11:25:47;;;;;;;2.20;1.83;;;45.00;19.80;;;;;;7382706;19;20386;-48
2022/08/09 11:28:41;;;;;;;2.43;1.37;;;45.30;19.90;;;;;;7387650;19;20391;-48
2022/08/09 11:31:29;;;;;;;1.63;1.10;;;;;;;;;;7384013;19;20380;-49
2022/08/09 11:34:08;;;;;;;3.60;2.43;;;46.10;18.80;;;;;;7384565;19;21007;-49
2022/08/09 11:36:44;;;;;;;1.40;1.20;;;45.90;19.40;;;;;;7385176;19;20905;-49
2022/08/09 11:39:13;;;;;;;1.83;1.50;;;46.70;19.20;;;;;;7382685;19;20380;-49
2022/08/09 11:41:43;;;;;;;2.13;1.87;;;46.60;19.10;;;;;;7382152;19;20364;-49
2022/08/09 11:44:13;;;;;;;2.23;1.20;;;46.50;19.30;;;;;;7388226;19;20606;-49
2022/08/09 11:46:56;;;;;;;1.93;1.40;;;46.80;19.10;;;;;;7384564;19;20372;-49
2022/08/09 11:49:56;;;;;;;5.60;1.40;;;46.80;19.10;;;;;;7385724;19;20380;-49
2022/08/09 11:52:30;;;;;;;1.83;1.43;;;46.70;18.90;;;;;;7386204;19;20729;-49
2022/08/09 11:55:33;;;;;;;2.07;1.20;;;46.70;18.70;;;;;;7386991;19;20982;-49
2022/08/09 11:58:03;;;;;;;2.30;1.37;;;46.00;19.40;;;;;;7385020;19;20474;-48
2022/08/09 12:00:35;;;;;;;1.60;1.30;;;45.90;19.30;;;;;;7383649;19;20432;-49
2022/08/09 12:03:17;;;;;;;2.13;1.40;;;45.40;19.30;;;;;;7384711;19;20376;-48
2022/08/09 12:05:48;;;;;;;1.40;1.30;;;45.60;19.50;;;;;;7384069;19;21025;-48
2022/08/09 12:08:22;;;;;;;1.10;1.00;;;46.40;19.40;;;;;;7385731;19;20769;-48
2022/08/09 12:10:54;;;;;;;6.43;1.53;;;46.20;19.60;;;;;;7385215;19;20414;-50
2022/08/09 12:13:34;;;;;;;1.70;1.50;;;46.70;19.30;;;;;;7384019;19;20442;-49
2022/08/09 12:16:06;;;;;;;1.50;1.13;;;46.70;19.20;;;;;;7382294;19;20405;-50
2022/08/09 12:18:36;;;;;;;1.40;1.30;;;46.90;19.10;;;;;;7384011;19;20376;-49
2022/08/09 12:21:08;;;;;;;1.30;1.20;;;46.20;19.30;;;;;;7382194;19;20376;-50
2022/08/09 12:23:44;;;;;;;1.87;1.27;;;45.70;19.50;;;;;;7384230;19;20391;-50
2022/08/09 12:26:14;;;;;;;1.80;1.70;;;45.90;19.40;;;;;;7383548;19;20406;-50
2022/08/09 12:28:49;;;;;;;1.20;1.10;;;46.10;19.10;;;;;;7383251;19;20488;-49
2022/08/09 12:31:23;;;;;;;1.97;1.20;;;46.30;19.20;;;;;;7386692;19;20405;-50
2022/08/09 12:33:54;;;;;;;3.10;1.50;;;46.00;19.20;;;;;;7375111;19;20391;-50
2022/08/09 12:36:24;;;;;;;2.83;1.53;;;45.50;19.30;;;;;;7371618;19;20393;-50
2022/08/09 12:38:57;;;;;;;1.80;1.10;;;45.30;19.70;;;;;;7381893;19;20376;-49
2022/08/09 12:41:29;;;;;;;1.73;1.63;;;45.00;20.00;;;;;;7384692;19;20488;-50
2022/08/09 12:44:01;;;;;;;1.50;1.23;;;44.80;20.00;;;;;;7382993;19;20723;-50
2022/08/09 12:46:31;;;;;;;1.40;1.30;;;45.00;20.10;;;;;;7380995;19;20380;-50
2022/08/09 12:49:01;;;;;;;1.60;1.20;;;45.10;20.00;;;;;;7384316;19;20372;-50
2022/08/09 12:51:30;;;;;;;1.90;1.40;;;46.10;19.60;;;;;;7381446;19;20373;-50
2022/08/09 12:54:04;;;;;;;1.40;1.30;;;47.10;19.70;;;;;;7381599;19;20890;-50
2022/08/09 12:56:34;;;;;;;3.60;1.30;;;47.10;18.80;;;;;;7371730;19;20407;-50
2022/08/09 12:59:10;;;;;;;2.70;1.37;;;47.00;18.80;;;;;;7384565;19;20380;-50
2022/08/09 13:01:43;;;;;;;1.77;1.20;;;46.90;19.00;;;;;;7381191;19;20435;-50
2022/08/09 13:04:15;;;;;;;2.20;1.40;;;47.40;18.30;;;;;;7383729;19;20994;-50
2022/08/09 13:06:48;;;;;;;2.23;1.17;;;47.10;18.80;;;;;;7383656;19;20705;-50
2022/08/09 13:09:27;;;;;;;1.20;1.10;;;47.50;18.40;;;;;;7379513;19;20378;-50
2022/08/09 13:12:03;;;;;;;1.40;1.30;;;47.60;18.20;;;;;;7384070;19;21442;-50
2022/08/09 13:14:33;;;;;;;2.50;1.10;;;47.40;18.30;;;;;;7381341;19;20815;-50
2022/08/09 13:17:04;;;;;;;2.50;1.20;;;47.00;18.70;;;;;;7357853;19;20519;-50